createdAt,value
2019-06-10T00:01:25.967Z,96.50
2019-06-10T00:04:27.707Z,96.90
2019-06-10T00:07:31.459Z,97.10
2019-06-10T00:10:32.339Z,97.60
2019-06-10T00:13:33.689Z,97.70
2019-06-10T00:16:35.033Z,97.50
2019-06-10T00:19:36.389Z,97.40
2019-06-10T00:22:37.669Z,97.70
2019-06-10T00:25:41.484Z,97.90
2019-06-10T00:28:42.098Z,98.00
2019-06-10T00:31:43.355Z,98.20
2019-06-10T00:34:44.684Z,98.50
2019-06-10T00:37:45.926Z,98.60
2019-06-10T00:40:47.193Z,98.70
2019-06-10T00:43:48.446Z,98.60
2019-06-10T00:46:51.619Z,99.30
2019-06-10T00:49:52.786Z,99.20
2019-06-10T00:52:54.084Z,99.00
2019-06-10T00:55:55.317Z,98.90
2019-06-10T00:58:56.694Z,99.10
2019-06-10T01:01:57.933Z,99.30
2019-06-10T01:05:00.807Z,99.60
2019-06-10T01:08:02.980Z,99.60
2019-06-10T01:11:10.457Z,99.80
2019-06-10T01:14:07.459Z,99.80
2019-06-10T01:17:11.814Z,99.70
2019-06-10T01:20:14.427Z,99.70
2019-06-10T01:23:15.699Z,99.70
2019-06-10T01:26:18.333Z,99.80
2019-06-10T01:29:21.065Z,99.90
2019-06-10T01:32:22.784Z,99.80
2019-06-10T01:35:24.227Z,99.50
2019-06-10T01:38:25.457Z,99.80
2019-06-10T01:41:30.565Z,99.90
2019-06-10T01:44:33.972Z,99.90
2019-06-10T01:47:35.008Z,99.90
2019-06-10T01:50:36.257Z,99.90
2019-06-10T01:53:37.540Z,99.90
2019-06-10T01:56:40.870Z,99.90
2019-06-10T01:59:42.040Z,99.90
2019-06-10T02:02:44.884Z,99.90
2019-06-10T02:05:46.457Z,99.90
2019-06-10T02:08:47.818Z,99.90
2019-06-10T02:11:51.266Z,99.90
2019-06-10T02:14:55.321Z,99.90
2019-06-10T02:17:56.630Z,99.90
2019-06-10T02:21:00.716Z,99.90
2019-06-10T02:24:01.154Z,99.90
2019-06-10T02:27:02.491Z,99.90
2019-06-10T02:30:14.931Z,99.90
2019-06-10T02:33:12.002Z,99.90
2019-06-10T02:36:15.934Z,99.90
2019-06-10T02:39:20.125Z,99.90
2019-06-10T02:42:30.100Z,99.90
2019-06-10T02:45:32.689Z,99.90
2019-06-10T02:48:30.538Z,99.90
2019-06-10T02:51:35.439Z,99.90
2019-06-10T02:54:35.882Z,99.90
2019-06-10T02:57:40.424Z,99.90
2019-06-10T03:00:48.012Z,99.90
2019-06-10T03:03:48.956Z,99.90
2019-06-10T03:06:46.738Z,99.90
2019-06-10T03:09:48.066Z,99.90
2019-06-10T03:12:49.417Z,99.90
2019-06-10T03:15:52.653Z,99.90
2019-06-10T03:18:54.037Z,99.90
2019-06-10T03:21:55.270Z,99.90
2019-06-10T03:24:56.930Z,99.90
2019-06-10T03:27:58.169Z,99.90
2019-06-10T03:30:59.562Z,99.80
2019-06-10T03:34:04.452Z,99.30
2019-06-10T03:37:04.081Z,98.80
2019-06-10T03:40:05.622Z,98.20
2019-06-10T03:43:08.791Z,98.00
2019-06-10T03:46:29.890Z,97.80
2019-06-10T03:49:32.175Z,97.10
2019-06-10T03:52:33.510Z,96.60
2019-06-10T03:55:34.884Z,95.90
2019-06-10T03:58:36.221Z,95.40
2019-06-10T04:01:37.493Z,95.70
2019-06-10T04:04:38.812Z,94.70
2019-06-10T04:07:42.694Z,94.00
2019-06-10T04:10:43.569Z,93.70
2019-06-10T04:13:48.020Z,93.70
2019-06-10T04:16:49.214Z,93.40
2019-06-10T04:20:07.584Z,92.70
2019-06-10T04:22:55.440Z,92.00
2019-06-10T04:25:56.754Z,91.40
2019-06-10T04:28:57.998Z,90.40
2019-06-10T04:32:03.072Z,90.10
2019-06-10T04:35:04.623Z,89.20
2019-06-10T04:38:05.933Z,90.30
2019-06-10T04:41:07.169Z,91.60
2019-06-10T04:44:08.446Z,91.20
2019-06-10T04:47:11.935Z,89.00
2019-06-10T04:50:24.003Z,86.80
2019-06-10T04:53:16.061Z,83.70
2019-06-10T04:56:17.329Z,84.80
2019-06-10T04:59:18.878Z,83.90
2019-06-10T05:02:23.788Z,84.40
2019-06-10T05:05:25.282Z,83.70
2019-06-10T05:08:27.902Z,83.60
2019-06-10T05:11:30.844Z,81.50
2019-06-10T05:14:33.558Z,82.00
2019-06-10T05:17:35.017Z,81.60
2019-06-10T05:20:51.207Z,84.40
2019-06-10T05:23:39.502Z,83.00
2019-06-10T05:26:42.824Z,78.30
2019-06-10T05:29:44.539Z,80.90
2019-06-10T05:32:46.073Z,79.20
2019-06-10T05:35:47.730Z,77.80
2019-06-10T05:38:52.569Z,79.40
2019-06-10T05:41:53.960Z,79.30
2019-06-10T05:44:55.325Z,79.20
2019-06-10T05:47:56.684Z,78.90
2019-06-10T05:51:02.929Z,79.20
2019-06-10T05:54:02.166Z,76.90
2019-06-10T05:57:03.629Z,77.00
2019-06-10T06:00:13.905Z,75.30
2019-06-10T06:03:12.062Z,74.30
2019-06-10T06:06:13.415Z,74.20
2019-06-10T06:09:14.903Z,74.00
2019-06-10T06:12:16.238Z,76.10
2019-06-10T06:15:18.145Z,77.00
2019-06-10T06:18:19.384Z,74.50
2019-06-10T06:21:29.553Z,76.70
2019-06-10T06:24:23.690Z,77.40
2019-06-10T06:27:24.957Z,78.40
2019-06-10T06:30:26.513Z,78.50
2019-06-10T06:33:29.319Z,76.70
2019-06-10T06:36:33.318Z,77.20
2019-06-10T06:39:35.504Z,78.90
2019-06-10T06:42:38.348Z,79.10
2019-06-10T06:45:42.607Z,78.00
2019-06-10T06:48:44.567Z,78.50
2019-06-10T06:51:54.909Z,78.70
2019-06-10T06:54:49.230Z,78.50
2019-06-10T06:57:52.842Z,79.80
2019-06-10T07:01:04.444Z,79.80
2019-06-10T07:03:57.498Z,79.40
2019-06-10T07:07:02.546Z,80.00
2019-06-10T07:10:06.933Z,78.40
2019-06-10T07:13:12.767Z,79.00
2019-06-10T07:16:13.213Z,78.90
2019-06-10T07:19:16.762Z,80.70
2019-06-10T07:22:18.097Z,80.40
2019-06-10T07:25:19.385Z,79.10
2019-06-10T07:28:22.902Z,79.30
2019-06-10T07:31:27.685Z,81.30
2019-06-10T07:34:26.813Z,82.90
2019-06-10T07:37:28.404Z,79.10
2019-06-10T07:40:30.046Z,80.20
2019-06-10T07:43:32.879Z,81.00
2019-06-10T07:46:36.061Z,79.20
2019-06-10T07:49:37.475Z,77.60
2019-06-10T07:52:39.333Z,79.30
2019-06-10T07:55:42.154Z,79.20
2019-06-10T07:58:47.500Z,77.40
2019-06-10T08:01:51.346Z,80.60
2019-06-10T08:04:53.893Z,79.70
2019-06-10T08:07:54.733Z,78.80
2019-06-10T08:10:56.286Z,78.80
2019-06-10T08:13:57.503Z,79.20
2019-06-10T08:16:58.894Z,79.10
2019-06-10T08:20:02.415Z,78.10
2019-06-10T08:23:03.682Z,81.30
2019-06-10T08:26:05.160Z,77.10
2019-06-10T08:29:06.626Z,77.40
2019-06-10T08:32:09.787Z,76.30
2019-06-10T08:35:12.842Z,77.80
2019-06-10T08:38:15.672Z,79.30
2019-06-10T08:41:17.121Z,76.70
2019-06-10T08:44:19.146Z,78.50
2019-06-10T08:47:22.818Z,74.20
2019-06-10T08:50:24.798Z,77.10
2019-06-10T08:53:28.497Z,78.30
2019-06-10T08:56:32.806Z,74.70
2019-06-10T08:59:35.966Z,74.10
2019-06-10T09:02:45.221Z,71.60
2019-06-10T09:05:49.056Z,75.10
2019-06-10T09:08:49.911Z,74.30
2019-06-10T09:11:54.470Z,73.80
2019-06-10T09:14:54.409Z,74.50
2019-06-10T09:17:56.467Z,70.30
2019-06-10T09:20:58.085Z,69.90
2019-06-10T09:24:01.247Z,73.20
2019-06-10T09:27:03.041Z,70.30
2019-06-10T09:30:09.417Z,67.50
2019-06-10T09:33:12.855Z,68.70
2019-06-10T09:36:13.958Z,68.70
2019-06-10T09:39:15.390Z,73.20
2019-06-10T09:42:16.910Z,68.60
2019-06-10T09:45:18.479Z,67.60
2019-06-10T09:48:22.931Z,68.90
2019-06-10T09:51:26.909Z,64.00
2019-06-10T09:54:28.389Z,66.90
2019-06-10T09:57:32.022Z,65.00
2019-06-10T10:00:56.976Z,70.50
2019-06-10T10:03:59.865Z,71.40
2019-06-10T10:06:57.626Z,69.80
2019-06-10T10:09:59.187Z,68.60
2019-06-10T10:13:02.714Z,69.10
2019-06-10T10:16:07.317Z,64.90
2019-06-10T10:19:08.695Z,62.40
2019-06-10T10:22:11.689Z,61.50
2019-06-10T10:25:14.404Z,62.50
2019-06-10T10:28:15.873Z,65.00
2019-06-10T10:31:17.395Z,64.80
2019-06-10T10:34:22.436Z,62.70
2019-06-10T10:37:24.912Z,59.80
2019-06-10T10:40:26.595Z,61.60
2019-06-10T10:43:33.263Z,58.40
2019-06-10T10:46:33.216Z,58.20
2019-06-10T10:49:34.577Z,62.40
2019-06-10T10:52:37.761Z,59.70
2019-06-10T10:55:38.933Z,60.00
2019-06-10T10:58:40.177Z,59.70
2019-06-10T11:01:42.758Z,57.50
2019-06-10T11:04:46.242Z,54.90
2019-06-10T11:07:49.868Z,61.80
2019-06-10T11:10:56.975Z,60.60
2019-06-10T11:13:58.511Z,61.20
2019-06-10T11:16:59.901Z,58.40
2019-06-10T11:20:03.697Z,56.10
2019-06-10T11:23:04.648Z,55.70
2019-06-10T11:26:06.028Z,57.50
2019-06-10T11:29:07.766Z,59.90
2019-06-10T11:32:09.048Z,58.50
2019-06-10T11:35:12.148Z,55.40
2019-06-10T11:38:14.122Z,51.00
2019-06-10T11:41:16.290Z,52.00
2019-06-10T11:44:19.738Z,50.80
2019-06-10T11:47:22.817Z,51.60
2019-06-10T11:50:24.425Z,54.90
2019-06-10T11:53:28.725Z,51.40
2019-06-10T11:56:28.985Z,53.80
2019-06-10T11:59:32.602Z,50.70
2019-06-10T12:02:33.414Z,50.90
2019-06-10T12:05:35.286Z,46.50
2019-06-10T12:08:37.058Z,47.20
2019-06-10T12:11:38.337Z,48.00
2019-06-10T12:14:43.143Z,47.00
2019-06-10T12:17:50.800Z,46.00
2019-06-10T12:20:47.667Z,46.10
2019-06-10T12:23:49.720Z,44.20
2019-06-10T12:26:55.239Z,44.50
2019-06-10T12:29:56.682Z,46.30
2019-06-10T12:32:59.457Z,45.20
2019-06-10T12:36:07.082Z,44.30
2019-06-10T12:39:10.853Z,40.40
2019-06-10T12:42:15.847Z,42.00
2019-06-10T12:45:20.310Z,41.80
2019-06-10T12:48:23.450Z,40.30
2019-06-10T12:51:24.752Z,40.60
2019-06-10T12:54:26.502Z,41.80
2019-06-10T12:57:32.422Z,39.20
2019-06-10T13:00:39.423Z,41.30
2019-06-10T13:03:43.263Z,41.70
2019-06-10T13:06:52.565Z,43.50
2019-06-10T13:09:57.636Z,43.10
2019-06-10T13:13:00.229Z,42.30
2019-06-10T13:16:06.606Z,40.70
2019-06-10T13:19:07.935Z,38.70
2019-06-10T13:22:09.319Z,41.40
2019-06-10T13:25:13.235Z,41.20
2019-06-10T13:28:13.694Z,41.30
2019-06-10T13:31:15.612Z,40.90
2019-06-10T13:34:17.101Z,40.10
2019-06-10T13:37:18.389Z,40.50
2019-06-10T13:40:22.578Z,39.30
2019-06-10T13:43:24.033Z,39.70
2019-06-10T13:46:25.672Z,38.90
2019-06-10T13:49:28.680Z,39.50
2019-06-10T13:52:32.237Z,40.80
2019-06-10T13:55:35.542Z,44.10
2019-06-10T13:58:36.872Z,43.20
2019-06-10T14:01:38.453Z,46.10
2019-06-10T14:04:40.242Z,41.70
2019-06-10T14:07:43.496Z,43.10
2019-06-10T14:10:45.525Z,44.80
2019-06-10T14:13:46.891Z,47.40
2019-06-10T14:16:54.002Z,44.00
2019-06-10T14:19:54.285Z,46.00
2019-06-10T14:22:55.748Z,41.50
2019-06-10T14:25:57.797Z,42.10
2019-06-10T14:28:59.380Z,41.20
2019-06-10T14:32:02.666Z,40.90
2019-06-10T14:35:07.021Z,42.70
2019-06-10T14:38:10.056Z,41.00
2019-06-10T14:41:12.753Z,43.60
2019-06-10T14:44:17.735Z,43.90
2019-06-10T14:47:17.489Z,43.50
2019-06-10T14:50:19.077Z,43.60
2019-06-10T14:53:22.913Z,40.30
2019-06-10T14:56:23.803Z,41.20
2019-06-10T14:59:25.329Z,41.10
2019-06-10T15:02:26.724Z,41.70
2019-06-10T15:05:28.634Z,38.00
2019-06-10T15:08:32.130Z,37.80
2019-06-10T15:11:36.310Z,36.50
2019-06-10T15:14:42.746Z,37.00
2019-06-10T15:17:45.529Z,35.30
2019-06-10T15:20:47.451Z,35.60
2019-06-10T15:23:48.685Z,33.00
2019-06-10T15:27:05.949Z,33.10
2019-06-10T15:29:54.324Z,32.10
2019-06-10T15:32:57.845Z,30.70
2019-06-10T15:36:02.354Z,32.00
2019-06-10T15:39:06.358Z,32.30
2019-06-10T15:42:11.497Z,34.20
2019-06-10T15:45:18.026Z,34.20
2019-06-10T15:48:25.106Z,34.20
2019-06-10T15:51:26.179Z,33.20
2019-06-10T15:54:26.631Z,31.10
2019-06-10T15:57:39.538Z,30.40
2019-06-10T16:00:34.151Z,32.80
2019-06-10T16:03:34.682Z,33.40
2019-06-10T16:06:35.942Z,35.90
2019-06-10T16:09:37.236Z,34.40
2019-06-10T16:12:38.644Z,34.20
2019-06-10T16:15:39.932Z,34.50
2019-06-10T16:18:42.327Z,34.90
2019-06-10T16:21:44.440Z,35.30
2019-06-10T16:24:45.817Z,35.00
2019-06-10T16:27:51.024Z,35.30
2019-06-10T16:30:53.315Z,34.00
2019-06-10T16:33:54.578Z,35.50
2019-06-10T16:36:55.998Z,35.50
2019-06-10T16:39:57.482Z,35.90
2019-06-10T16:42:59.802Z,33.50
2019-06-10T16:46:03.306Z,36.20
2019-06-10T16:49:05.546Z,35.10
2019-06-10T16:52:06.983Z,37.00
2019-06-10T16:55:08.837Z,36.70
2019-06-10T16:58:10.021Z,37.40
2019-06-10T17:01:12.439Z,37.30
2019-06-10T17:04:14.161Z,37.30
2019-06-10T17:07:15.418Z,37.80
2019-06-10T17:10:17.594Z,37.00
2019-06-10T17:13:23.558Z,38.20
2019-06-10T17:16:26.107Z,40.00
2019-06-10T17:19:29.962Z,42.80
2019-06-10T17:22:33.411Z,45.90
2019-06-10T17:25:34.327Z,48.20
2019-06-10T17:28:36.816Z,50.10
2019-06-10T17:31:39.381Z,51.80
2019-06-10T17:34:42.344Z,53.60
2019-06-10T17:37:43.631Z,54.90
2019-06-10T17:40:45.358Z,56.60
2019-06-10T17:43:46.846Z,57.90
2019-06-10T17:46:48.283Z,59.50
2019-06-10T17:49:50.569Z,60.20
2019-06-10T17:52:53.410Z,61.50
2019-06-10T17:55:54.952Z,63.00
2019-06-10T17:58:58.112Z,63.40
2019-06-10T18:01:59.621Z,63.00
2019-06-10T18:05:03.214Z,63.70
2019-06-10T18:08:04.787Z,63.50
2019-06-10T18:11:06.325Z,64.50
2019-06-10T18:14:07.795Z,66.50
2019-06-10T18:17:12.808Z,68.10
2019-06-10T18:20:15.064Z,68.80
2019-06-10T18:23:16.722Z,69.20
2019-06-10T18:26:18.261Z,71.10
2019-06-10T18:29:19.515Z,71.70
2019-06-10T18:32:22.844Z,72.40
2019-06-10T18:35:25.822Z,73.00
2019-06-10T18:38:27.376Z,74.40
2019-06-10T18:41:28.621Z,74.50
2019-06-10T18:44:32.665Z,76.00
2019-06-10T18:47:36.100Z,76.40
2019-06-10T18:50:39.384Z,77.70
2019-06-10T18:53:43.609Z,78.00
2019-06-10T18:56:45.673Z,78.80
2019-06-10T18:59:47.382Z,79.20
2019-06-10T19:02:49.243Z,80.50
2019-06-10T19:05:52.787Z,81.10
2019-06-10T19:08:53.751Z,81.40
2019-06-10T19:12:02.757Z,82.40
2019-06-10T19:15:05.193Z,83.50
2019-06-10T19:18:06.891Z,84.50
2019-06-10T19:21:12.560Z,85.00
2019-06-10T19:24:17.522Z,85.70
2019-06-10T19:27:19.001Z,86.20
2019-06-10T19:30:23.148Z,86.40
2019-06-10T19:33:23.975Z,86.60
2019-06-10T19:36:28.132Z,87.20
2019-06-10T19:39:29.849Z,88.10
2019-06-10T19:42:34.510Z,88.40
2019-06-10T19:45:38.459Z,88.70
2019-06-10T19:48:55.473Z,89.60
2019-06-10T19:51:49.801Z,89.20
2019-06-10T19:54:55.926Z,89.50
2019-06-10T19:57:57.963Z,90.20
2019-06-10T20:01:00.044Z,90.10
2019-06-10T20:04:07.619Z,90.20
2019-06-10T20:07:12.836Z,90.50
2019-06-10T20:10:15.009Z,90.70
2019-06-10T20:13:18.171Z,90.80
2019-06-10T20:16:24.670Z,90.90
2019-06-10T20:19:26.463Z,91.20
2019-06-10T20:22:32.056Z,91.20
2019-06-10T20:25:33.405Z,91.60
2019-06-10T20:28:34.962Z,91.50
2019-06-10T20:31:36.410Z,91.60
2019-06-10T20:34:39.302Z,91.40
2019-06-10T20:37:44.283Z,91.90
2019-06-10T20:40:48.761Z,92.10
2019-06-10T20:43:55.058Z,92.20
2019-06-10T20:46:54.032Z,92.40
2019-06-10T20:49:56.285Z,92.80
2019-06-10T20:53:11.844Z,92.80
2019-06-10T20:56:03.749Z,93.00
2019-06-10T20:59:06.174Z,93.20
2019-06-10T21:02:07.971Z,93.40
2019-06-10T21:05:10.441Z,93.80
2019-06-10T21:08:14.179Z,93.80
2019-06-10T21:11:15.488Z,94.10
2019-06-10T21:14:17.402Z,94.20
2019-06-10T21:17:22.822Z,94.40
2019-06-10T21:20:25.071Z,94.40
2019-06-10T21:23:28.862Z,94.60
2019-06-10T21:26:32.360Z,94.80
2019-06-10T21:29:35.107Z,95.00
2019-06-10T21:32:36.621Z,95.10
2019-06-10T21:35:38.145Z,95.10
2019-06-10T21:38:39.568Z,95.40
2019-06-10T21:41:43.450Z,95.60
2019-06-10T21:44:43.979Z,95.50
2019-06-10T21:47:45.900Z,96.10
2019-06-10T21:50:49.799Z,95.80
2019-06-10T21:53:53.737Z,96.00
2019-06-10T21:56:55.616Z,96.20
2019-06-10T21:59:57.229Z,96.50
2019-06-10T22:02:58.907Z,96.70
2019-06-10T22:06:00.303Z,96.80
2019-06-10T22:09:04.029Z,97.00
2019-06-10T22:12:04.837Z,97.10
2019-06-10T22:15:12.291Z,97.30
2019-06-10T22:18:15.236Z,97.30
2019-06-10T22:21:16.749Z,97.40
2019-06-10T22:24:18.053Z,97.70
2019-06-10T22:27:19.297Z,97.80
2019-06-10T22:30:22.766Z,98.00
2019-06-10T22:33:24.166Z,98.40
2019-06-10T22:36:25.392Z,98.60
2019-06-10T22:39:28.821Z,98.70
2019-06-10T22:42:30.116Z,99.20
2019-06-10T22:45:32.320Z,99.10
2019-06-10T22:48:33.843Z,99.20
2019-06-10T22:51:35.203Z,99.30
2019-06-10T22:54:36.549Z,99.30
2019-06-10T22:57:37.780Z,99.70
2019-06-10T23:00:39.075Z,99.90
2019-06-10T23:03:40.872Z,99.90
2019-06-10T23:06:42.134Z,99.90
2019-06-10T23:09:48.622Z,99.90
2019-06-10T23:12:51.299Z,99.90
2019-06-10T23:15:53.957Z,99.90
2019-06-10T23:18:58.423Z,99.90
2019-06-10T23:22:02.950Z,99.90
2019-06-10T23:25:05.318Z,99.90
2019-06-10T23:28:06.570Z,99.90
2019-06-10T23:31:08.282Z,99.90
2019-06-10T23:34:15.999Z,99.90
2019-06-10T23:37:14.770Z,99.90
2019-06-10T23:40:16.001Z,99.90
2019-06-10T23:43:22.334Z,99.90
2019-06-10T23:46:22.920Z,99.90
2019-06-10T23:49:24.181Z,99.90
2019-06-10T23:52:25.434Z,99.90
2019-06-10T23:55:27.078Z,99.90
2019-06-10T23:58:28.338Z,99.90
